createdAt,value
2023-02-08T00:01:46.274Z,65.54
2023-02-08T00:04:12.735Z,65.08
2023-02-08T00:06:39.037Z,65.29
2023-02-08T00:09:05.373Z,64.91
2023-02-08T00:11:31.731Z,65.08
2023-02-08T00:13:58.102Z,64.84
2023-02-08T00:16:24.499Z,65.14
2023-02-08T00:18:50.859Z,65.11
2023-02-08T00:21:18.123Z,64.87
2023-02-08T00:23:44.625Z,64.91
2023-02-08T00:26:11.118Z,64.27
2023-02-08T00:28:37.441Z,63.64
2023-02-08T00:31:04.221Z,64.07
2023-02-08T00:33:30.677Z,64.45
2023-02-08T00:36:00.943Z,64.17
2023-02-08T00:38:27.461Z,63.85
2023-02-08T00:40:53.927Z,64.23
2023-02-08T00:43:20.248Z,63.77
2023-02-08T00:45:46.544Z,63.76
2023-02-08T00:48:12.848Z,63.57
2023-02-08T00:50:39.333Z,64.14
2023-02-08T00:53:05.793Z,64.35
2023-02-08T00:55:32.136Z,63.39
2023-02-08T00:57:58.516Z,63.78
2023-02-08T01:00:24.873Z,63.40
2023-02-08T01:02:51.394Z,63.91
2023-02-08T01:05:17.729Z,64.01
2023-02-08T01:07:44.011Z,64.05
2023-02-08T01:10:12.429Z,63.61
2023-02-08T01:12:39.052Z,63.59
2023-02-08T01:15:06.002Z,63.75
2023-02-08T01:17:32.396Z,64.08
2023-02-08T01:19:58.742Z,63.96
2023-02-08T01:22:25.015Z,64.17
2023-02-08T01:24:51.387Z,64.04
2023-02-08T01:27:17.705Z,64.28
2023-02-08T01:29:44.008Z,64.21
2023-02-08T01:32:10.332Z,64.35
2023-02-08T01:34:36.669Z,64.17
2023-02-08T01:37:02.983Z,65.25
2023-02-08T01:39:29.321Z,65.95
2023-02-08T01:41:55.649Z,66.49
2023-02-08T01:44:40.684Z,66.37
2023-02-08T01:47:07.125Z,64.98
2023-02-08T01:49:35.627Z,63.99
2023-02-08T01:52:12.664Z,64.28
2023-02-08T01:54:51.305Z,63.72
2023-02-08T01:57:18.435Z,63.19
2023-02-08T01:59:47.714Z,64.01
2023-02-08T02:02:15.815Z,64.29
2023-02-08T02:04:42.456Z,64.63
2023-02-08T02:07:08.874Z,64.31
2023-02-08T02:09:42.978Z,63.60
2023-02-08T02:12:09.669Z,63.79
2023-02-08T02:14:37.779Z,63.74
2023-02-08T02:17:04.464Z,63.38
2023-02-08T02:19:30.717Z,63.91
2023-02-08T02:22:18.743Z,63.39
2023-02-08T02:24:57.252Z,63.30
2023-02-08T02:27:23.520Z,63.48
2023-02-08T02:30:02.032Z,63.73
2023-02-08T02:32:47.225Z,63.71
2023-02-08T02:35:13.519Z,63.65
2023-02-08T02:37:39.794Z,63.38
2023-02-08T02:40:18.682Z,63.48
2023-02-08T02:43:29.943Z,63.20
2023-02-08T02:46:15.104Z,64.41
2023-02-08T02:48:47.195Z,63.84
2023-02-08T02:51:33.801Z,64.05
2023-02-08T02:54:00.137Z,64.57
2023-02-08T02:56:38.313Z,64.91
2023-02-08T02:59:06.285Z,65.17
2023-02-08T03:01:32.794Z,64.26
2023-02-08T03:03:59.499Z,64.45
2023-02-08T03:06:37.795Z,63.88
2023-02-08T03:09:13.377Z,64.10
2023-02-08T03:11:44.842Z,64.27
2023-02-08T03:14:30.138Z,64.35
2023-02-08T03:16:56.409Z,63.95
2023-02-08T03:19:28.433Z,63.92
2023-02-08T03:21:56.732Z,63.69
2023-02-08T03:24:23.035Z,63.59
2023-02-08T03:26:58.662Z,63.58
2023-02-08T03:29:35.995Z,63.96
2023-02-08T03:32:16.903Z,65.03
2023-02-08T03:34:48.787Z,65.01
2023-02-08T03:37:35.331Z,66.28
2023-02-08T03:40:10.620Z,67.05
2023-02-08T03:42:37.427Z,66.90
2023-02-08T03:45:12.001Z,66.05
2023-02-08T03:47:40.723Z,66.80
2023-02-08T03:50:09.316Z,66.59
2023-02-08T03:52:36.055Z,65.52
2023-02-08T03:55:07.261Z,66.07
2023-02-08T03:57:36.947Z,65.78
2023-02-08T04:00:08.393Z,65.56
2023-02-08T04:02:37.472Z,64.70
2023-02-08T04:05:04.484Z,63.72
2023-02-08T04:07:30.892Z,63.57
2023-02-08T04:09:57.756Z,63.30
2023-02-08T04:12:24.025Z,63.12
2023-02-08T04:14:50.376Z,63.07
2023-02-08T04:17:16.655Z,63.25
2023-02-08T04:19:43.005Z,63.38
2023-02-08T04:22:09.298Z,63.09
2023-02-08T04:24:35.585Z,62.99
2023-02-08T04:27:02.257Z,62.55
2023-02-08T04:29:29.321Z,62.58
2023-02-08T04:31:55.666Z,63.12
2023-02-08T04:34:22.077Z,62.96
2023-02-08T04:36:48.396Z,63.03
2023-02-08T04:39:14.667Z,63.15
2023-02-08T04:41:41.019Z,63.07
2023-02-08T04:44:07.326Z,63.23
2023-02-08T04:46:33.638Z,62.71
2023-02-08T04:48:59.980Z,63.22
2023-02-08T04:51:26.318Z,63.43
2023-02-08T04:53:52.656Z,63.52
2023-02-08T04:56:19.284Z,63.33
2023-02-08T04:58:45.691Z,63.55
2023-02-08T05:01:12.115Z,63.78
2023-02-08T05:03:38.662Z,62.83
2023-02-08T05:06:05.087Z,63.14
2023-02-08T05:08:31.393Z,63.09
2023-02-08T05:10:57.708Z,63.59
2023-02-08T05:13:24.065Z,63.58
2023-02-08T05:15:50.419Z,62.97
2023-02-08T05:18:16.759Z,63.40
2023-02-08T05:20:43.213Z,62.27
2023-02-08T05:23:09.524Z,63.00
2023-02-08T05:25:37.239Z,62.88
2023-02-08T05:28:03.615Z,62.50
2023-02-08T05:30:29.959Z,63.39
2023-02-08T05:32:56.278Z,63.75
2023-02-08T05:35:22.611Z,64.24
2023-02-08T05:37:49.198Z,62.98
2023-02-08T05:40:15.549Z,63.43
2023-02-08T05:42:42.406Z,62.80
2023-02-08T05:45:08.909Z,63.00
2023-02-08T05:47:36.044Z,63.16
2023-02-08T05:50:02.363Z,63.68
2023-02-08T05:52:28.690Z,63.55
2023-02-08T05:54:55.006Z,63.36
2023-02-08T05:57:21.311Z,64.10
2023-02-08T05:59:47.666Z,64.41
2023-02-08T06:02:14.277Z,63.92
2023-02-08T06:04:40.673Z,65.09
2023-02-08T06:07:06.948Z,64.88
2023-02-08T06:09:33.260Z,64.71
2023-02-08T06:11:59.584Z,65.15
2023-02-08T06:14:25.958Z,65.35
2023-02-08T06:16:52.324Z,64.90
2023-02-08T06:19:18.786Z,64.66
2023-02-08T06:21:45.193Z,64.97
2023-02-08T06:24:11.973Z,64.98
2023-02-08T06:26:38.349Z,64.46
2023-02-08T06:29:04.721Z,64.25
2023-02-08T06:31:31.072Z,64.19
2023-02-08T06:33:57.397Z,64.14
2023-02-08T06:36:23.756Z,63.54
2023-02-08T06:38:51.340Z,63.37
2023-02-08T06:41:17.813Z,63.59
2023-02-08T06:43:44.106Z,63.26
2023-02-08T06:46:10.542Z,63.34
2023-02-08T06:48:37.109Z,63.55
2023-02-08T06:51:03.604Z,62.82
2023-02-08T06:53:30.029Z,63.22
2023-02-08T06:55:56.705Z,63.78
2023-02-08T06:58:23.076Z,63.97
2023-02-08T07:00:49.411Z,64.07
2023-02-08T07:03:17.422Z,63.87
2023-02-08T07:05:55.235Z,63.77
2023-02-08T07:08:29.979Z,64.14
2023-02-08T07:10:56.339Z,64.14
2023-02-08T07:13:22.627Z,63.92
2023-02-08T07:15:48.939Z,64.37
2023-02-08T07:18:15.246Z,64.30
2023-02-08T07:20:41.767Z,64.77
2023-02-08T07:23:08.222Z,65.31
2023-02-08T07:25:34.530Z,64.93
2023-02-08T07:28:01.064Z,65.74
2023-02-08T07:30:27.468Z,65.60
2023-02-08T07:32:53.893Z,66.15
2023-02-08T07:35:20.198Z,66.79
2023-02-08T07:37:46.796Z,66.80
2023-02-08T07:40:13.081Z,66.90
2023-02-08T07:42:39.463Z,67.12
2023-02-08T07:45:05.932Z,68.19
2023-02-08T07:47:32.237Z,68.20
2023-02-08T07:49:58.558Z,68.44
2023-02-08T07:52:24.914Z,68.57
2023-02-08T07:54:51.264Z,68.68
2023-02-08T07:57:21.144Z,68.80
2023-02-08T07:59:48.164Z,68.66
2023-02-08T08:02:15.270Z,68.62
2023-02-08T08:04:41.625Z,69.24
2023-02-08T08:07:07.996Z,69.51
2023-02-08T08:09:34.272Z,69.13
2023-02-08T08:12:00.564Z,69.88
2023-02-08T08:14:26.899Z,69.86
2023-02-08T08:16:53.187Z,69.16
2023-02-08T08:19:19.490Z,69.43
2023-02-08T08:21:45.842Z,69.82
2023-02-08T08:24:12.234Z,70.20
2023-02-08T08:26:38.502Z,70.65
2023-02-08T08:29:04.935Z,70.94
2023-02-08T08:31:31.478Z,69.56
2023-02-08T08:33:57.885Z,70.51
2023-02-08T08:36:24.220Z,69.85
2023-02-08T08:38:51.146Z,70.04
2023-02-08T08:41:18.099Z,69.30
2023-02-08T08:43:44.874Z,70.17
2023-02-08T08:46:11.585Z,69.32
2023-02-08T08:48:40.920Z,69.75
2023-02-08T08:51:07.660Z,69.71
2023-02-08T08:53:34.563Z,70.12
2023-02-08T08:56:00.874Z,69.04
2023-02-08T08:58:27.222Z,70.27
2023-02-08T09:00:55.155Z,69.84
2023-02-08T09:03:21.521Z,68.88
2023-02-08T09:05:47.907Z,69.39
2023-02-08T09:08:14.217Z,69.75
2023-02-08T09:10:40.934Z,69.46
2023-02-08T09:13:07.564Z,68.77
2023-02-08T09:15:33.968Z,68.31
2023-02-08T09:18:00.291Z,68.83
2023-02-08T09:20:26.723Z,68.81
2023-02-08T09:22:53.590Z,68.15
2023-02-08T09:25:19.889Z,67.45
2023-02-08T09:27:46.223Z,68.20
2023-02-08T09:30:12.733Z,67.37
2023-02-08T09:32:39.925Z,68.10
2023-02-08T09:35:06.861Z,68.11
2023-02-08T09:37:33.210Z,66.88
2023-02-08T09:40:00.190Z,67.77
2023-02-08T09:42:26.644Z,66.71
2023-02-08T09:44:52.936Z,66.41
2023-02-08T09:47:22.413Z,66.12
2023-02-08T09:49:48.732Z,66.89
2023-02-08T09:52:18.218Z,66.97
2023-02-08T09:54:57.043Z,65.58
2023-02-08T09:57:25.538Z,66.01
2023-02-08T10:00:00.179Z,65.38
2023-02-08T10:02:28.093Z,65.62
2023-02-08T10:05:00.534Z,66.14
2023-02-08T10:07:26.963Z,65.10
2023-02-08T10:09:57.729Z,65.78
2023-02-08T10:12:27.092Z,65.67
2023-02-08T10:14:53.424Z,65.36
2023-02-08T10:17:19.717Z,65.02
2023-02-08T10:20:00.562Z,64.06
2023-02-08T10:22:45.511Z,63.89
2023-02-08T10:25:31.430Z,65.04
2023-02-08T10:28:06.669Z,64.83
2023-02-08T10:30:43.822Z,65.02
2023-02-08T10:33:29.012Z,64.05
2023-02-08T10:35:56.011Z,63.70
2023-02-08T10:38:45.255Z,64.19
2023-02-08T10:41:18.459Z,64.69
2023-02-08T10:43:48.842Z,64.43
2023-02-08T10:46:21.201Z,63.75
2023-02-08T10:48:58.822Z,63.93
2023-02-08T10:51:26.200Z,63.76
2023-02-08T10:53:53.570Z,62.53
2023-02-08T10:56:38.961Z,64.23
2023-02-08T10:59:12.357Z,63.89
2023-02-08T11:01:38.745Z,63.73
2023-02-08T11:04:12.080Z,62.86
2023-02-08T11:06:39.434Z,64.08
2023-02-08T11:09:06.536Z,63.57
2023-02-08T11:11:37.910Z,63.76
2023-02-08T11:14:09.103Z,62.76
2023-02-08T11:16:36.778Z,63.43
2023-02-08T11:19:07.685Z,63.19
2023-02-08T11:21:38.776Z,64.13
2023-02-08T11:24:22.829Z,63.99
2023-02-08T11:26:50.040Z,62.61
2023-02-08T11:29:18.141Z,61.80
2023-02-08T11:32:16.089Z,63.73
2023-02-08T11:34:42.584Z,61.95
2023-02-08T11:37:25.993Z,61.99
2023-02-08T11:39:56.424Z,62.50
2023-02-08T11:42:25.562Z,62.40
2023-02-08T11:44:52.690Z,62.88
2023-02-08T11:47:26.128Z,61.89
2023-02-08T11:49:53.862Z,61.53
2023-02-08T11:52:27.525Z,62.05
2023-02-08T11:54:55.023Z,62.19
2023-02-08T11:57:25.305Z,61.24
2023-02-08T12:00:09.977Z,60.96
2023-02-08T12:02:40.210Z,62.14
2023-02-08T12:05:14.994Z,61.36
2023-02-08T12:07:41.400Z,62.45
2023-02-08T12:10:07.693Z,62.73
2023-02-08T12:12:40.014Z,61.37
2023-02-08T12:15:25.644Z,61.38
2023-02-08T12:17:51.958Z,60.49
2023-02-08T12:20:36.550Z,62.12
2023-02-08T12:23:11.708Z,62.23
2023-02-08T12:25:41.246Z,61.30
2023-02-08T12:28:21.057Z,61.68
2023-02-08T12:30:58.909Z,60.48
2023-02-08T12:33:29.404Z,61.46
2023-02-08T12:36:04.253Z,59.70
2023-02-08T12:39:19.577Z,60.29
2023-02-08T12:41:53.093Z,60.26
2023-02-08T12:44:28.053Z,60.87
2023-02-08T12:46:57.368Z,60.87
2023-02-08T12:49:32.731Z,60.18
2023-02-08T12:52:14.403Z,60.93
2023-02-08T12:54:45.158Z,61.06
2023-02-08T12:57:14.189Z,60.29
2023-02-08T12:59:44.458Z,60.60
2023-02-08T13:02:29.634Z,60.89
2023-02-08T13:05:00.130Z,59.70
2023-02-08T13:07:32.952Z,60.13
2023-02-08T13:10:12.684Z,59.29
2023-02-08T13:12:42.199Z,60.55
2023-02-08T13:15:28.372Z,59.52
2023-02-08T13:18:04.316Z,60.20
2023-02-08T13:20:36.798Z,60.67
2023-02-08T13:23:06.302Z,60.31
2023-02-08T13:25:34.516Z,59.43
2023-02-08T13:28:05.100Z,60.19
2023-02-08T13:30:32.702Z,60.01
2023-02-08T13:33:01.942Z,60.51
2023-02-08T13:35:29.693Z,60.18
2023-02-08T13:38:00.701Z,59.35
2023-02-08T13:40:29.528Z,59.18
2023-02-08T13:43:34.671Z,60.43
2023-02-08T13:46:02.469Z,59.88
2023-02-08T13:48:40.759Z,58.74
2023-02-08T13:51:26.982Z,58.75
2023-02-08T13:53:56.199Z,60.30
2023-02-08T13:56:37.556Z,59.32
2023-02-08T13:59:22.678Z,58.44
2023-02-08T14:02:07.681Z,59.78
2023-02-08T14:04:35.226Z,59.82
2023-02-08T14:07:07.265Z,59.40
2023-02-08T14:09:44.000Z,59.30
2023-02-08T14:12:29.358Z,58.99
2023-02-08T14:15:14.542Z,59.56
2023-02-08T14:17:49.537Z,59.50
2023-02-08T14:20:18.687Z,58.63
2023-02-08T14:22:50.332Z,58.52
2023-02-08T14:25:24.733Z,58.71
2023-02-08T14:27:56.883Z,58.18
2023-02-08T14:30:27.391Z,57.92
2023-02-08T14:33:08.365Z,58.46
2023-02-08T14:35:37.610Z,58.06
2023-02-08T14:38:19.114Z,59.45
2023-02-08T14:40:49.435Z,57.99
2023-02-08T14:43:18.781Z,58.75
2023-02-08T14:45:49.348Z,59.09
2023-02-08T14:48:34.571Z,59.83
2023-02-08T14:51:10.336Z,58.57
2023-02-08T14:53:44.914Z,59.28
2023-02-08T14:56:17.150Z,59.94
2023-02-08T14:58:45.844Z,58.95
2023-02-08T15:01:14.354Z,59.33
2023-02-08T15:03:42.186Z,58.46
2023-02-08T15:06:08.577Z,59.09
2023-02-08T15:08:34.928Z,60.59
2023-02-08T15:11:01.228Z,60.42
2023-02-08T15:13:27.641Z,60.58
2023-02-08T15:15:55.828Z,60.32
2023-02-08T15:18:27.881Z,59.48
2023-02-08T15:21:02.589Z,60.70
2023-02-08T15:23:30.596Z,60.54
2023-02-08T15:25:58.236Z,61.60
2023-02-08T15:28:25.833Z,61.19
2023-02-08T15:30:56.729Z,61.35
2023-02-08T15:33:23.177Z,61.40
2023-02-08T15:36:06.164Z,59.87
2023-02-08T15:38:33.846Z,59.80
2023-02-08T15:41:05.326Z,60.29
2023-02-08T15:43:32.082Z,61.86
2023-02-08T15:45:59.830Z,61.35
2023-02-08T15:48:26.920Z,61.35
2023-02-08T15:50:54.105Z,60.71
2023-02-08T15:53:20.799Z,60.75
2023-02-08T15:55:49.394Z,60.97
2023-02-08T15:58:18.358Z,60.64
2023-02-08T16:00:45.879Z,61.56
2023-02-08T16:03:20.229Z,61.25
2023-02-08T16:05:56.947Z,62.21
2023-02-08T16:08:27.814Z,61.96
2023-02-08T16:11:00.279Z,63.15
2023-02-08T16:13:28.971Z,61.43
2023-02-08T16:16:07.142Z,61.50
2023-02-08T16:18:41.897Z,62.37
2023-02-08T16:21:26.725Z,61.99
2023-02-08T16:23:54.616Z,62.59
2023-02-08T16:26:22.568Z,62.02
2023-02-08T16:29:16.319Z,62.35
2023-02-08T16:31:44.348Z,62.97
2023-02-08T16:34:14.961Z,61.97
2023-02-08T16:36:42.631Z,63.05
2023-02-08T16:39:14.881Z,63.30
2023-02-08T16:41:57.241Z,63.56
2023-02-08T16:44:31.605Z,62.87
2023-02-08T16:46:58.756Z,63.27
2023-02-08T16:49:25.538Z,63.35
2023-02-08T16:51:56.105Z,63.38
2023-02-08T16:54:22.742Z,62.62
2023-02-08T16:56:53.670Z,63.28
2023-02-08T16:59:20.012Z,62.78
2023-02-08T17:01:48.294Z,63.17
2023-02-08T17:04:14.675Z,62.74
2023-02-08T17:06:41.880Z,64.51
2023-02-08T17:09:09.069Z,64.13
2023-02-08T17:11:35.755Z,64.60
2023-02-08T17:14:02.100Z,63.25
2023-02-08T17:16:29.662Z,64.75
2023-02-08T17:18:56.969Z,63.90
2023-02-08T17:21:23.428Z,63.86
2023-02-08T17:23:49.795Z,64.04
2023-02-08T17:26:29.115Z,64.93
2023-02-08T17:28:56.361Z,63.46
2023-02-08T17:31:23.332Z,64.12
2023-02-08T17:33:50.169Z,64.87
2023-02-08T17:36:17.374Z,63.94
2023-02-08T17:38:45.068Z,64.25
2023-02-08T17:41:13.858Z,63.25
2023-02-08T17:43:40.178Z,64.34
2023-02-08T17:46:15.877Z,63.96
2023-02-08T17:48:42.732Z,64.26
2023-02-08T17:51:16.375Z,63.85
2023-02-08T17:53:43.699Z,64.98
2023-02-08T17:56:11.205Z,64.03
2023-02-08T17:58:37.881Z,65.14
2023-02-08T18:01:04.700Z,63.97
2023-02-08T18:03:31.314Z,65.11
2023-02-08T18:05:58.519Z,64.64
2023-02-08T18:08:25.297Z,65.13
2023-02-08T18:10:52.201Z,64.59
2023-02-08T18:13:19.385Z,64.27
2023-02-08T18:15:46.871Z,64.64
2023-02-08T18:18:13.473Z,64.85
2023-02-08T18:20:43.647Z,63.97
2023-02-08T18:23:10.048Z,65.21
2023-02-08T18:25:36.679Z,64.42
2023-02-08T18:28:03.028Z,65.18
2023-02-08T18:30:29.364Z,64.93
2023-02-08T18:32:55.641Z,64.98
2023-02-08T18:35:22.525Z,64.49
2023-02-08T18:37:50.016Z,64.75
2023-02-08T18:40:16.548Z,65.49
2023-02-08T18:42:42.932Z,65.31
2023-02-08T18:45:09.428Z,65.18
2023-02-08T18:47:36.450Z,65.50
2023-02-08T18:50:03.319Z,65.59
2023-02-08T18:52:31.552Z,65.36
2023-02-08T18:54:58.082Z,64.56
2023-02-08T18:57:24.648Z,65.28
2023-02-08T18:59:52.870Z,64.82
2023-02-08T19:02:21.183Z,64.47
2023-02-08T19:04:47.866Z,64.06
2023-02-08T19:07:14.230Z,64.40
2023-02-08T19:09:41.030Z,65.05
2023-02-08T19:12:07.562Z,63.31
2023-02-08T19:14:34.372Z,63.92
2023-02-08T19:17:00.911Z,63.89
2023-02-08T19:19:27.253Z,63.90
2023-02-08T19:21:53.622Z,64.17
2023-02-08T19:24:20.034Z,64.29
2023-02-08T19:26:46.340Z,63.94
2023-02-08T19:29:14.476Z,64.03
2023-02-08T19:31:41.076Z,64.32
2023-02-08T19:34:07.515Z,63.84
2023-02-08T19:36:38.634Z,64.58
2023-02-08T19:39:05.752Z,64.77
2023-02-08T19:41:33.565Z,64.03
2023-02-08T19:44:00.520Z,63.37
2023-02-08T19:46:27.931Z,63.26
2023-02-08T19:48:55.361Z,63.21
2023-02-08T19:51:22.198Z,63.81
2023-02-08T19:53:48.631Z,63.62
2023-02-08T19:56:16.131Z,63.85
2023-02-08T19:58:43.088Z,63.34
2023-02-08T20:01:13.316Z,63.41
2023-02-08T20:03:39.771Z,63.55
2023-02-08T20:06:06.143Z,64.14
2023-02-08T20:08:32.694Z,63.98
2023-02-08T20:10:59.080Z,63.78
2023-02-08T20:13:26.637Z,63.99
2023-02-08T20:15:57.268Z,63.72
2023-02-08T20:18:23.837Z,63.75
2023-02-08T20:20:59.087Z,64.17
2023-02-08T20:23:25.830Z,64.18
2023-02-08T20:25:52.222Z,64.35
2023-02-08T20:28:18.596Z,65.31
2023-02-08T20:30:45.186Z,64.96
2023-02-08T20:33:11.513Z,65.21
2023-02-08T20:35:37.814Z,65.29
2023-02-08T20:38:04.253Z,65.12
2023-02-08T20:40:31.514Z,65.47
2023-02-08T20:42:57.837Z,65.38
2023-02-08T20:45:24.334Z,65.28
2023-02-08T20:47:50.638Z,65.65
2023-02-08T20:50:19.593Z,64.79
2023-02-08T20:52:46.885Z,65.59
2023-02-08T20:55:13.316Z,65.71
2023-02-08T20:57:39.743Z,65.25
2023-02-08T21:00:06.339Z,65.82
2023-02-08T21:02:32.688Z,65.51
2023-02-08T21:04:59.127Z,65.10
2023-02-08T21:07:25.643Z,66.07
2023-02-08T21:09:51.944Z,64.85
2023-02-08T21:12:18.246Z,64.94
2023-02-08T21:14:44.787Z,64.97
2023-02-08T21:17:11.670Z,65.60
2023-02-08T21:19:39.561Z,64.77
2023-02-08T21:22:06.000Z,65.25
2023-02-08T21:24:32.385Z,64.05
2023-02-08T21:26:59.494Z,64.44
2023-02-08T21:29:26.178Z,64.40
2023-02-08T21:31:54.142Z,65.01
2023-02-08T21:34:21.148Z,63.38
2023-02-08T21:36:47.663Z,64.04
2023-02-08T21:39:14.011Z,63.61
2023-02-08T21:41:40.302Z,63.71
2023-02-08T21:44:08.138Z,63.15
2023-02-08T21:46:34.747Z,64.19
2023-02-08T21:49:19.749Z,64.05
2023-02-08T21:52:04.681Z,63.85
2023-02-08T21:54:41.762Z,63.11
2023-02-08T21:57:18.720Z,63.74
2023-02-08T21:59:46.296Z,63.13
2023-02-08T22:02:14.405Z,63.53
2023-02-08T22:04:59.199Z,63.58
2023-02-08T22:07:26.023Z,62.93
2023-02-08T22:09:52.625Z,62.84
2023-02-08T22:12:20.761Z,63.73
2023-02-08T22:14:47.914Z,63.36
2023-02-08T22:17:14.273Z,62.97
2023-02-08T22:19:41.328Z,63.01
2023-02-08T22:22:08.629Z,63.04
2023-02-08T22:24:35.548Z,61.81
2023-02-08T22:27:02.268Z,62.09
2023-02-08T22:29:28.924Z,61.94
2023-02-08T22:31:55.308Z,62.20
2023-02-08T22:34:21.785Z,62.22
2023-02-08T22:36:48.099Z,63.48
2023-02-08T22:39:14.506Z,62.39
2023-02-08T22:41:40.869Z,61.74
2023-02-08T22:44:07.174Z,61.65
2023-02-08T22:46:33.521Z,62.21
2023-02-08T22:48:59.870Z,62.83
2023-02-08T22:51:26.293Z,62.45
2023-02-08T22:53:52.747Z,61.51
2023-02-08T22:56:19.954Z,62.43
2023-02-08T22:58:46.264Z,61.89
2023-02-08T23:01:13.805Z,61.54
2023-02-08T23:03:40.139Z,61.89
2023-02-08T23:06:07.998Z,62.57
2023-02-08T23:08:34.523Z,62.52
2023-02-08T23:11:01.773Z,62.14
2023-02-08T23:13:28.685Z,61.90
2023-02-08T23:15:55.020Z,62.38
2023-02-08T23:18:21.521Z,60.92
2023-02-08T23:20:48.200Z,62.15
2023-02-08T23:23:14.580Z,62.71
2023-02-08T23:25:41.574Z,61.38
2023-02-08T23:28:08.795Z,61.37
2023-02-08T23:30:35.250Z,61.97
2023-02-08T23:33:01.562Z,61.50
2023-02-08T23:35:27.867Z,62.54
2023-02-08T23:37:54.137Z,61.67
2023-02-08T23:40:20.540Z,60.71
2023-02-08T23:42:46.867Z,61.96
2023-02-08T23:45:13.272Z,61.18
2023-02-08T23:47:40.084Z,61.28
2023-02-08T23:50:07.430Z,62.55
2023-02-08T23:52:34.821Z,61.91
2023-02-08T23:55:01.195Z,61.50
2023-02-08T23:57:37.504Z,62.00
